Time;durP1;ratioP1;P1;durP2;ratioP2;P2;SDS_P1;SDS_P2;PMS_P1;PMS_P2;Temp;Humidity;BMP_temperature;BMP_pressure;BME280_temperature;BME280_humidity;BME280_pressure;Samples;Min_cycle;Max_cycle;Signal;HPM_P1;HPM_P2
2023/10/24 04:05:33;;;;;;;7.10;5.00;;;;;;;9.88;100.00;99989.38;5796144;27;20110;-82
2023/10/24 04:08:36;;;;;;;8.82;4.93;;;;;;;9.82;100.00;99996.31;5420507;32;33569;-83
2023/10/24 04:11:39;;;;;;;6.07;4.85;;;;;;;9.84;100.00;99988.09;5407871;32;33479;-82
2023/10/24 04:14:42;;;;;;;7.62;4.65;;;;;;;9.81;100.00;99978.53;5407095;32;33850;-82
2023/10/24 04:17:45;;;;;;;6.12;4.60;;;;;;;9.80;100.00;99984.06;5410036;32;34456;-81
2023/10/24 04:20:48;;;;;;;10.07;4.65;;;;;;;9.83;100.00;99986.37;5410115;32;33730;-83
2023/10/24 04:23:51;;;;;;;6.40;4.78;;;;;;;9.76;100.00;99981.75;5408086;32;33647;-86
2023/10/24 04:26:55;;;;;;;8.75;4.93;;;;;;;9.74;100.00;99978.44;5410636;32;34237;-84
2023/10/24 04:29:58;;;;;;;7.90;5.22;;;;;;;9.77;100.00;99975.38;5396265;32;33920;-83
2023/10/24 04:33:02;;;;;;;7.90;5.07;;;;;;;9.79;100.00;99982.41;5405639;32;34558;-82
2023/10/24 04:36:08;;;;;;;8.15;4.80;;;;;;;9.80;100.00;99992.13;5390561;32;33977;-82
2023/10/24 04:39:12;;;;;;;8.60;5.03;;;;;;;9.77;100.00;99991.50;5403120;32;34011;-83
2023/10/24 04:42:16;;;;;;;6.80;4.25;;;;;;;9.77;100.00;99987.97;5402460;32;34462;-82
2023/10/24 04:45:18;;;;;;;8.15;4.72;;;;;;;9.78;100.00;100000.41;5389692;32;34445;-82
2023/10/24 04:48:21;;;;;;;8.57;4.70;;;;;;;9.72;100.00;100017.25;5400951;32;34018;-82
2023/10/24 04:51:24;;;;;;;6.32;4.15;;;;;;;9.71;100.00;100021.81;5402059;32;34480;-83
2023/10/24 04:54:27;;;;;;;9.98;5.37;;;;;;;9.67;100.00;100015.09;5402575;32;33649;-83
2023/10/24 04:57:30;;;;;;;8.18;5.10;;;;;;;9.65;100.00;100006.41;5402505;32;34058;-83
2023/10/24 05:00:33;;;;;;;10.77;4.93;;;;;;;9.64;100.00;99999.34;5414706;32;32627;-83
2023/10/24 05:03:38;;;;;;;6.37;4.50;;;;;;;9.71;100.00;99997.59;5403291;32;33984;-83
2023/10/24 05:06:41;;;;;;;8.65;4.62;;;;;;;9.70;100.00;99989.72;5402181;32;33787;-83
2023/10/24 05:09:44;;;;;;;7.43;4.37;;;;;;;9.66;100.00;99996.47;5409630;32;33346;-83
2023/10/24 05:12:47;;;;;;;6.80;4.80;;;;;;;9.65;100.00;99998.34;5422354;32;33747;-83
2023/10/24 05:15:50;;;;;;;6.95;4.43;;;;;;;9.64;100.00;99993.97;5422109;32;34821;-83
2023/10/24 05:18:53;;;;;;;9.55;4.35;;;;;;;9.64;100.00;99993.13;5410350;32;33980;-83
2023/10/24 05:21:57;;;;;;;7.90;5.15;;;;;;;9.62;100.00;99987.91;5410643;32;33929;-83
2023/10/24 05:25:00;;;;;;;6.32;4.40;;;;;;;9.62;100.00;99984.41;5409898;32;33776;-83
2023/10/24 05:28:04;;;;;;;7.65;4.35;;;;;;;9.63;100.00;99986.09;5421360;32;33754;-83
2023/10/24 05:31:07;;;;;;;5.68;4.87;;;;;;;9.60;100.00;99984.59;5434822;32;33741;-83
2023/10/24 05:34:11;;;;;;;7.07;4.78;;;;;;;9.58;100.00;99991.16;5420629;32;33786;-83
2023/10/24 05:37:14;;;;;;;5.87;4.25;;;;;;;9.61;100.00;99985.44;5420567;32;33913;-83
2023/10/24 05:40:17;;;;;;;5.62;4.10;;;;;;;9.58;100.00;99980.41;5408691;32;33847;-83
2023/10/24 05:43:20;;;;;;;7.15;4.55;;;;;;;9.58;100.00;99991.16;5409433;32;33912;-85
2023/10/24 05:46:23;;;;;;;7.60;4.62;;;;;;;9.61;100.00;99990.81;5407792;32;34108;-84
2023/10/24 05:49:27;;;;;;;7.07;4.47;;;;;;;9.64;100.00;99991.28;5435393;32;33470;-84
2023/10/24 05:52:31;;;;;;;7.65;4.68;;;;;;;9.73;100.00;99976.72;5418885;32;33763;-88
2023/10/24 05:55:34;;;;;;;7.28;4.45;;;;;;;9.78;100.00;99981.56;5409538;32;34439;-88
2023/10/24 05:58:37;;;;;;;6.18;4.60;;;;;;;9.82;100.00;99984.72;5419873;32;33920;-89
2023/10/24 06:01:40;;;;;;;5.45;4.40;;;;;;;9.92;100.00;99988.84;5394367;32;34893;-85
2023/10/24 06:04:44;;;;;;;10.95;5.10;;;;;;;10.03;100.00;100000.97;5405331;32;33852;-84
2023/10/24 06:07:47;;;;;;;8.50;4.72;;;;;;;10.10;100.00;99998.41;5409752;32;34582;-86
2023/10/24 06:10:56;;;;;;;7.72;4.72;;;;;;;10.18;100.00;99991.09;5421925;32;33352;-85
2023/10/24 06:13:59;;;;;;;9.27;4.63;;;;;;;10.36;100.00;100001.50;5434491;32;33463;-84
2023/10/24 06:17:02;;;;;;;7.68;5.18;;;;;;;10.51;100.00;100004.19;5408550;32;33395;-84
2023/10/24 06:20:06;;;;;;;7.87;5.07;;;;;;;10.61;100.00;100010.13;5438523;32;33766;-84
2023/10/24 06:23:10;;;;;;;10.25;5.32;;;;;;;10.73;100.00;100010.47;5409406;32;33613;-84
2023/10/24 06:26:17;;;;;;;9.15;5.22;;;;;;;10.80;100.00;100011.41;5435938;32;34122;-84
2023/10/24 06:29:20;;;;;;;7.37;4.80;;;;;;;10.92;100.00;100003.69;5426231;32;35821;-84
2023/10/24 06:32:23;;;;;;;8.73;5.12;;;;;;;11.04;100.00;100012.94;5432001;32;34214;-84
2023/10/24 06:35:28;;;;;;;6.57;4.30;;;;;;;11.17;100.00;100006.00;5399782;32;33964;-84
2023/10/24 06:38:31;;;;;;;9.10;5.32;;;;;;;11.25;100.00;99998.66;5403088;32;33573;-83
2023/10/24 06:41:34;;;;;;;9.45;5.03;;;;;;;11.37;100.00;100003.53;5407918;32;34038;-83
2023/10/24 06:44:36;;;;;;;7.05;4.80;;;;;;;11.48;100.00;100006.53;5402068;32;33878;-83
2023/10/24 06:47:42;;;;;;;7.70;5.37;;;;;;;11.52;100.00;100010.53;5419859;32;34607;-83
2023/10/24 06:50:45;;;;;;;6.87;4.40;;;;;;;11.65;100.00;100007.13;5420234;32;34762;-82
2023/10/24 06:53:49;;;;;;;8.60;5.18;;;;;;;11.86;100.00;100000.91;5419363;32;34013;-82
2023/10/24 06:56:52;;;;;;;11.15;5.00;;;;;;;11.90;100.00;99994.06;5404247;32;33623;-83
2023/10/24 06:59:55;;;;;;;6.72;4.68;;;;;;;11.92;100.00;99989.31;5419491;32;35439;-83
2023/10/24 07:02:58;;;;;;;9.07;5.07;;;;;;;12.10;100.00;99996.91;5407607;32;35065;-83
2023/10/24 07:06:03;;;;;;;10.00;5.12;;;;;;;12.17;100.00;99987.03;5418717;32;33894;-83
2023/10/24 07:09:06;;;;;;;8.73;5.28;;;;;;;12.14;100.00;99983.84;5417835;32;34434;-82
2023/10/24 07:12:09;;;;;;;9.82;5.15;;;;;;;12.01;100.00;99980.03;5417442;32;33356;-83
2023/10/24 07:15:12;;;;;;;11.30;5.25;;;;;;;12.05;100.00;99967.00;5403204;32;33453;-83
2023/10/24 07:18:18;;;;;;;10.00;5.25;;;;;;;12.14;100.00;99970.37;5415654;32;33739;-83
2023/10/24 07:21:22;;;;;;;9.43;5.43;;;;;;;12.19;100.00;99976.00;5404859;32;34487;-83
2023/10/24 07:24:25;;;;;;;10.27;5.68;;;;;;;12.42;100.00;99973.03;5401610;32;34787;-83
2023/10/24 07:27:29;;;;;;;9.77;5.40;;;;;;;12.46;100.00;99980.53;5402813;32;33477;-83
2023/10/24 07:30:32;;;;;;;10.02;6.00;;;;;;;12.55;100.00;99999.25;5412904;32;34742;-83
2023/10/24 07:33:35;;;;;;;10.88;5.65;;;;;;;12.70;100.00;99973.78;5435045;32;33960;-83
2023/10/24 07:36:40;;;;;;;8.48;5.70;;;;;;;12.84;100.00;99973.81;5393362;32;34431;-82
2023/10/24 07:39:43;;;;;;;10.05;5.22;;;;;;;12.95;100.00;99973.25;5412989;32;33441;-82
2023/10/24 07:42:49;;;;;;;10.40;6.28;;;;;;;13.07;100.00;99970.78;5407678;32;34031;-82
2023/10/24 07:45:55;;;;;;;12.10;5.70;;;;;;;13.16;100.00;99973.09;5406832;32;34143;-82
2023/10/24 07:49:00;;;;;;;11.45;6.40;;;;;;;13.17;100.00;99957.72;5433102;32;34905;-82
2023/10/24 07:52:03;;;;;;;9.30;5.70;;;;;;;13.26;100.00;99951.09;5406001;32;34337;-86
2023/10/24 07:55:06;;;;;;;8.93;6.35;;;;;;;13.28;100.00;99951.75;5413001;32;34473;-86
2023/10/24 07:58:10;;;;;;;10.25;6.55;;;;;;;13.28;100.00;99953.59;5419769;32;33985;-87
2023/10/24 08:01:13;;;;;;;13.27;7.15;;;;;;;13.31;100.00;99953.22;5407912;32;33132;-85
2023/10/24 08:04:16;;;;;;;13.02;7.07;;;;;;;13.29;100.00;99939.06;5433661;32;33748;-84
2023/10/24 08:07:19;;;;;;;11.93;7.10;;;;;;;13.25;100.00;99943.16;5420776;32;34092;-83
2023/10/24 08:10:22;;;;;;;15.75;8.00;;;;;;;13.22;100.00;99940.87;5415232;32;33803;-83
2023/10/24 08:13:25;;;;;;;10.90;7.10;;;;;;;13.27;100.00;99938.41;5441917;32;33812;-83
2023/10/24 08:16:28;;;;;;;11.57;6.85;;;;;;;13.45;100.00;99935.94;5427252;32;34801;-82
2023/10/24 08:19:31;;;;;;;10.98;6.90;;;;;;;13.76;100.00;99931.78;5428734;32;33989;-83
2023/10/24 08:22:34;;;;;;;12.55;7.03;;;;;;;13.90;100.00;99938.00;5426003;32;33694;-83
2023/10/24 08:25:37;;;;;;;10.05;6.68;;;;;;;13.93;100.00;99940.28;5423511;32;34062;-83
2023/10/24 08:28:40;;;;;;;9.30;6.57;;;;;;;14.14;100.00;99934.63;5416728;32;33681;-84
2023/10/24 08:31:43;;;;;;;11.63;7.07;;;;;;;14.13;100.00;99953.78;5408825;32;33705;-83
2023/10/24 08:35:03;;;;;;;10.95;6.35;;;;;;;14.17;100.00;99949.63;5414423;32;33722;-83
2023/10/24 08:38:06;;;;;;;10.13;6.53;;;;;;;14.29;100.00;99947.91;5405729;32;34463;-83
2023/10/24 08:41:10;;;;;;;9.68;5.97;;;;;;;14.51;100.00;99951.19;5423466;32;33753;-83
2023/10/24 08:44:14;;;;;;;15.23;6.45;;;;;;;14.93;100.00;99941.63;5434462;32;34141;-83
2023/10/24 08:47:19;;;;;;;13.70;7.03;;;;;;;15.26;100.00;99942.47;5406895;32;33353;-83
2023/10/24 08:50:23;;;;;;;11.52;6.62;;;;;;;15.47;100.00;99935.84;5420204;32;33787;-83
2023/10/24 08:53:26;;;;;;;7.90;6.35;;;;;;;15.54;100.00;99929.31;5433239;32;34547;-83
2023/10/24 08:56:30;;;;;;;8.15;5.60;;;;;;;15.71;100.00;99934.25;5407512;32;33803;-83
2023/10/24 08:59:35;;;;;;;10.80;6.55;;;;;;;15.67;100.00;99930.25;5419925;32;33744;-83
2023/10/24 09:02:41;;;;;;;11.48;7.18;;;;;;;15.45;100.00;99932.53;5431439;32;33342;-83
2023/10/24 09:05:48;;;;;;;11.77;7.07;;;;;;;15.43;100.00;99935.47;5430888;32;33336;-83
2023/10/24 09:08:50;;;;;;;10.98;6.60;;;;;;;15.53;100.00;99933.09;5412142;32;32867;-83
2023/10/24 09:11:58;;;;;;;13.40;7.03;;;;;;;15.52;100.00;99926.00;5418147;32;33758;-83
2023/10/24 09:15:02;;;;;;;12.75;6.97;;;;;;;15.45;100.00;99922.53;5431150;32;34739;-83
2023/10/24 09:18:05;;;;;;;11.63;7.40;;;;;;;15.35;100.00;99905.88;5416272;32;33573;-83
2023/10/24 09:21:09;;;;;;;13.27;7.60;;;;;;;15.39;100.00;99899.81;5404415;32;34488;-83
2023/10/24 09:24:13;;;;;;;11.07;7.15;;;;;;;15.51;100.00;99891.78;5420632;32;33685;-83
2023/10/24 09:27:18;;;;;;;14.38;7.85;;;;;;;15.74;100.00;99893.09;5433390;32;33477;-83
2023/10/24 09:30:23;;;;;;;10.90;6.82;;;;;;;15.93;100.00;99883.88;5418202;32;33740;-83
2023/10/24 09:33:27;;;;;;;11.05;6.75;;;;;;;16.05;100.00;99881.25;5412996;32;33997;-83
2023/10/24 09:36:31;;;;;;;11.50;6.97;;;;;;;16.36;100.00;99871.31;5416095;32;33894;-83
2023/10/24 09:39:57;;;;;;;12.57;7.03;;;;;;;16.41;100.00;99876.84;5418216;32;33748;-83
2023/10/24 09:43:06;;;;;;;12.63;7.35;;;;;;;16.60;100.00;99883.09;5420491;32;33392;-83
2023/10/24 09:46:10;;;;;;;10.77;6.72;;;;;;;16.63;100.00;99878.03;5432124;32;33599;-83
2023/10/24 09:49:13;;;;;;;11.73;7.00;;;;;;;16.91;100.00;99888.34;5420611;32;33070;-82
2023/10/24 09:52:18;;;;;;;11.20;6.97;;;;;;;17.08;100.00;99884.94;5422372;32;33443;-82
2023/10/24 09:55:22;;;;;;;10.82;6.50;;;;;;;17.19;100.00;99886.87;5435911;32;33526;-82
2023/10/24 09:58:27;;;;;;;8.70;6.57;;;;;;;17.20;100.00;99888.56;5435053;32;33898;-82
2023/10/24 10:01:31;;;;;;;12.52;6.70;;;;;;;17.46;100.00;99884.53;5421593;32;34813;-83
2023/10/24 10:04:37;;;;;;;12.70;6.10;;;;;;;17.70;100.00;99877.25;5434689;32;33609;-80
2023/10/24 10:07:41;;;;;;;10.43;6.07;;;;;;;17.93;100.00;99848.34;5434533;32;33685;-81
2023/10/24 10:10:46;;;;;;;8.93;6.12;;;;;;;18.36;100.00;99856.06;5418549;32;33777;-80
2023/10/24 10:13:53;;;;;;;11.07;5.85;;;;;;;18.39;100.00;99858.31;5429496;32;33940;-80
2023/10/24 10:17:11;;;;;;;10.48;5.80;;;;;;;18.56;100.00;99848.31;5439942;32;33776;-81
2023/10/24 10:20:37;;;;;;;7.80;5.07;;;;;;;19.05;100.00;99834.22;5439857;32;34549;-81
2023/10/24 10:23:50;;;;;;;9.00;5.18;;;;;;;18.97;100.00;99824.53;5424670;32;33486;-81
2023/10/24 10:27:01;;;;;;;7.55;4.80;;;;;;;18.69;100.00;99822.66;5437386;32;34074;-80
2023/10/24 10:30:28;;;;;;;9.40;5.25;;;;;;;18.77;100.00;99819.53;5425397;32;34136;-81
2023/10/24 10:33:32;;;;;;;11.95;5.62;;;;;;;18.45;100.00;99807.47;5431786;32;34155;-85
2023/10/24 10:36:39;;;;;;;9.70;4.80;;;;;;;18.43;100.00;99804.13;5435056;32;34163;-85
2023/10/24 10:39:42;;;;;;;10.07;5.18;;;;;;;18.34;100.00;99793.66;5416295;32;34258;-81
2023/10/24 10:42:49;;;;;;;7.15;5.07;;;;;;;18.23;100.00;99790.97;5426372;32;34515;-81
2023/10/24 10:46:16;;;;;;;7.22;4.40;;;;;;;18.32;100.00;99797.69;5429487;32;33706;-81
2023/10/24 10:49:20;;;;;;;8.10;4.70;;;;;;;18.44;100.00;99793.00;5428312;32;32537;-81
2023/10/24 10:52:29;;;;;;;10.05;5.00;;;;;;;18.68;100.00;99784.72;5418670;32;34353;-81
2023/10/24 10:55:54;;;;;;;8.50;4.62;;;;;;;18.87;100.00;99783.44;5442529;32;33804;-81
2023/10/24 10:59:42;;;;;;;6.47;4.00;;;;;;;18.96;100.00;99781.16;5434905;32;33893;-81
2023/10/24 11:03:03;;;;;;;6.18;3.15;;;;;;;19.15;100.00;99779.81;5425912;32;33686;-81
2023/10/24 11:06:14;;;;;;;5.47;2.92;;;;;;;19.45;100.00;99784.91;5427997;32;33847;-81
2023/10/24 11:09:22;;;;;;;2.90;2.45;;;;;;;19.59;100.00;99796.28;5420477;32;33563;-81
2023/10/24 11:12:29;;;;;;;9.98;2.40;;;;;;;19.63;100.00;99792.00;5419535;32;33712;-85
2023/10/24 11:15:32;;;;;;;4.15;2.00;;;;;;;19.24;100.00;99789.22;5426230;32;33251;-82
2023/10/24 11:18:37;;;;;;;5.72;2.17;;;;;;;19.11;100.00;99789.56;5403757;32;34365;-81
2023/10/24 11:21:40;;;;;;;5.37;2.20;;;;;;;19.07;100.00;99801.22;5402942;32;34009;-81
2023/10/24 11:24:45;;;;;;;5.87;2.30;;;;;;;18.88;100.00;99790.56;5406108;32;33903;-82
2023/10/24 11:27:50;;;;;;;4.03;2.12;;;;;;;18.69;100.00;99789.94;5416825;32;33439;-82
2023/10/24 11:30:57;;;;;;;4.50;1.98;;;;;;;18.80;100.00;99797.22;5395205;32;33736;-81
2023/10/24 11:34:03;;;;;;;4.35;1.83;;;;;;;18.67;100.00;99802.16;5392380;32;34836;-81
2023/10/24 11:37:08;;;;;;;3.60;1.98;;;;;;;18.62;100.00;99804.78;5393059;32;34883;-82
2023/10/24 11:40:12;;;;;;;3.87;1.98;;;;;;;18.53;100.00;99804.34;5423956;32;34138;-84
2023/10/24 11:43:17;;;;;;;6.20;2.45;;;;;;;18.60;100.00;99788.66;5419999;32;33444;-84
2023/10/24 11:46:21;;;;;;;6.12;1.83;;;;;;;18.67;100.00;99783.88;5420723;32;33672;-83
2023/10/24 11:49:33;;;;;;;3.80;2.37;;;;;;;18.88;100.00;99790.56;5421138;32;33620;-83
2023/10/24 11:52:37;;;;;;;6.32;2.42;;;;;;;18.85;100.00;99790.22;5433080;32;33832;-81
2023/10/24 11:55:40;;;;;;;3.62;1.87;;;;;;;18.79;100.00;99792.84;5420533;32;33518;-81
2023/10/24 11:58:43;;;;;;;4.25;2.20;;;;;;;18.59;100.00;99792.47;5438192;32;33793;-81
2023/10/24 12:01:46;;;;;;;4.87;2.15;;;;;;;18.51;100.00;99795.56;5419704;32;33916;-81
2023/10/24 12:04:50;;;;;;;5.20;2.17;;;;;;;18.49;100.00;99787.66;5421768;32;33405;-81
2023/10/24 12:07:59;;;;;;;5.68;2.35;;;;;;;18.38;100.00;99793.16;5409265;32;34369;-81
2023/10/24 12:11:03;;;;;;;5.05;2.20;;;;;;;18.28;100.00;99770.09;5420579;32;34134;-81
2023/10/24 12:14:06;;;;;;;4.25;1.90;;;;;;;18.09;100.00;99764.00;5420751;32;33825;-81
2023/10/24 12:17:10;;;;;;;4.80;2.40;;;;;;;18.08;100.00;99758.81;5403503;32;33730;-82
2023/10/24 12:20:13;;;;;;;6.28;2.35;;;;;;;17.94;100.00;99769.16;5437595;32;33872;-82
2023/10/24 12:23:18;;;;;;;5.15;2.25;;;;;;;17.83;100.00;99756.38;5406964;32;33599;-81
2023/10/24 12:26:23;;;;;;;4.57;2.17;;;;;;;17.84;100.00;99747.13;5420625;32;34823;-82
2023/10/24 12:29:26;;;;;;;6.32;2.40;;;;;;;17.83;100.00;99732.69;5422320;32;34517;-82
2023/10/24 12:32:29;;;;;;;7.53;2.67;;;;;;;17.80;100.00;99727.72;5410244;32;33648;-82
2023/10/24 12:35:32;;;;;;;4.12;2.70;;;;;;;17.90;100.00;99735.28;5409330;32;33377;-82
2023/10/24 12:38:37;;;;;;;6.82;2.62;;;;;;;17.90;100.00;99738.00;5409972;32;33799;-81
2023/10/24 12:41:40;;;;;;;6.93;2.72;;;;;;;17.89;100.00;99737.19;5433827;32;35099;-82
2023/10/24 12:44:44;;;;;;;7.62;2.60;;;;;;;17.88;100.00;99749.16;5429962;32;33792;-82
2023/10/24 12:47:48;;;;;;;7.90;2.40;;;;;;;17.87;100.00;99757.53;5403859;32;33807;-81
2023/10/24 12:50:51;;;;;;;5.57;2.35;;;;;;;17.88;100.00;99740.97;5416535;32;34040;-81
2023/10/24 12:53:55;;;;;;;5.60;2.30;;;;;;;17.92;100.00;99737.78;5417859;32;33917;-82
2023/10/24 12:56:57;;;;;;;5.80;2.40;;;;;;;17.89;100.00;99739.06;5434909;32;33790;-86
2023/10/24 13:00:01;;;;;;;6.30;2.22;;;;;;;17.97;100.00;99743.31;5423876;32;32966;-85
2023/10/24 13:03:04;;;;;;;3.92;2.22;;;;;;;17.95;100.00;99743.56;5418573;32;33993;-85
2023/10/24 13:06:19;;;;;;;5.47;2.30;;;;;;;17.91;100.00;99745.12;5415932;32;33505;-81
2023/10/24 13:09:24;;;;;;;4.07;2.42;;;;;;;17.85;100.00;99744.19;5425009;32;33785;-82
2023/10/24 13:12:27;;;;;;;7.75;2.67;;;;;;;17.89;100.00;99729.00;5414762;32;34127;-81
2023/10/24 13:15:30;;;;;;;4.57;2.00;;;;;;;17.93;100.00;99731.25;5400878;32;33366;-82
2023/10/24 13:18:39;;;;;;;5.32;2.67;;;;;;;17.80;100.00;99727.72;5410026;32;33499;-81
2023/10/24 13:21:42;;;;;;;5.05;2.55;;;;;;;17.54;100.00;99733.69;5424298;32;33189;-82
2023/10/24 13:24:46;;;;;;;9.65;3.25;;;;;;;17.32;100.00;99747.91;5409178;32;33354;-81
2023/10/24 13:27:49;;;;;;;6.22;3.67;;;;;;;17.03;100.00;99749.69;5406216;32;34273;-83
2023/10/24 13:30:52;;;;;;;6.37;4.00;;;;;;;16.78;100.00;99749.87;5417370;32;33989;-82
2023/10/24 13:34:16;;;;;;;9.18;5.25;;;;;;;16.64;100.00;99742.97;5434158;32;34535;-81
2023/10/24 13:37:38;;;;;;;11.30;5.30;;;;;;;16.58;100.00;99733.84;5423657;32;33708;-81
2023/10/24 13:40:43;;;;;;;7.57;5.18;;;;;;;16.67;100.00;99728.91;5436048;32;33891;-81
2023/10/24 13:43:47;;;;;;;11.75;5.60;;;;;;;16.53;100.00;99734.56;5409838;32;34214;-81
2023/10/24 13:46:50;;;;;;;13.65;5.70;;;;;;;16.33;100.00;99731.31;5405768;32;33371;-82
2023/10/24 13:49:55;;;;;;;10.93;6.03;;;;;;;16.09;100.00;99725.81;5411244;32;34092;-81
2023/10/24 13:52:58;;;;;;;12.85;6.10;;;;;;;15.88;100.00;99729.00;5435067;32;33660;-81
2023/10/24 13:56:02;;;;;;;10.18;5.80;;;;;;;15.68;100.00;99721.13;5419867;32;33433;-81
2023/10/24 13:59:06;;;;;;;11.95;6.10;;;;;;;15.62;100.00;99692.16;5422267;32;34141;-81
2023/10/24 14:02:09;;;;;;;9.95;5.85;;;;;;;15.28;100.00;99696.31;5402866;32;34450;-81
2023/10/24 14:05:12;;;;;;;9.68;5.47;;;;;;;15.11;100.00;99694.16;5390963;32;34475;-81
2023/10/24 14:08:16;;;;;;;15.32;6.72;;;;;;;14.89;100.00;99679.41;5402155;32;34190;-81
2023/10/24 14:11:19;;;;;;;13.23;6.62;;;;;;;14.88;100.00;99692.09;5417547;32;34771;-80
2023/10/24 14:14:23;;;;;;;11.65;6.18;;;;;;;14.90;100.00;99673.75;5418526;32;35026;-81
2023/10/24 14:17:26;;;;;;;12.45;6.70;;;;;;;14.80;100.00;99673.44;5395307;32;34655;-81
2023/10/24 14:20:30;;;;;;;12.65;6.65;;;;;;;14.82;100.00;99654.22;5403987;32;34637;-81
2023/10/24 14:23:34;;;;;;;10.02;6.45;;;;;;;14.80;100.00;99653.59;5405482;32;33905;-81
2023/10/24 14:26:37;;;;;;;14.20;8.02;;;;;;;14.77;100.00;99645.94;5402622;32;33738;-82
2023/10/24 14:29:43;;;;;;;12.30;6.10;;;;;;;14.66;100.00;99633.97;5391840;32;34397;-82
2023/10/24 14:32:46;;;;;;;12.32;6.18;;;;;;;14.63;100.00;99618.16;5429596;32;32103;-81
2023/10/24 14:35:50;;;;;;;12.40;6.90;;;;;;;14.58;100.00;99607.16;5433301;32;33742;-82
2023/10/24 14:38:54;;;;;;;9.90;6.28;;;;;;;14.59;100.00;99589.84;5421901;32;33533;-81
2023/10/24 14:41:59;;;;;;;9.75;6.60;;;;;;;14.51;100.00;99586.38;5412881;32;34186;-81
2023/10/24 14:45:03;;;;;;;13.62;6.85;;;;;;;14.43;100.00;99583.91;5396536;32;33728;-81
2023/10/24 14:48:07;;;;;;;12.48;6.78;;;;;;;14.43;100.00;99556.00;5420584;32;33333;-82
2023/10/24 14:51:10;;;;;;;12.77;7.30;;;;;;;14.36;100.00;99539.84;5420336;32;34426;-82
2023/10/24 14:54:13;;;;;;;13.55;7.45;;;;;;;14.36;100.00;99545.25;5420917;32;33888;-81
2023/10/24 14:57:16;;;;;;;11.45;6.62;;;;;;;14.36;100.00;99526.28;5420178;32;33807;-81
2023/10/24 15:00:20;;;;;;;12.02;6.95;;;;;;;14.35;100.00;99519.19;5420710;32;33806;-81
2023/10/24 15:03:25;;;;;;;12.10;6.40;;;;;;;14.26;100.00;99502.41;5407921;32;34480;-81
2023/10/24 15:06:29;;;;;;;13.00;6.72;;;;;;;14.21;100.00;99494.12;5420435;32;34620;-81
2023/10/24 15:09:32;;;;;;;16.08;6.90;;;;;;;14.19;100.00;99493.53;5419997;32;33948;-81
2023/10/24 15:12:35;;;;;;;9.55;6.32;;;;;;;14.16;100.00;99499.41;5408065;32;35056;-81
2023/10/24 15:15:40;;;;;;;12.70;6.30;;;;;;;14.15;100.00;99516.69;5433811;32;33895;-81
2023/10/24 15:18:43;;;;;;;12.82;6.62;;;;;;;14.15;100.00;99535.63;5403334;32;170292;-81
2023/10/24 15:21:46;;;;;;;11.95;6.62;;;;;;;14.23;100.00;99546.19;5433622;32;35142;-81
2023/10/24 15:24:50;;;;;;;11.40;7.15;;;;;;;14.30;100.00;99548.81;5433656;32;33608;-81
2023/10/24 15:27:52;;;;;;;12.30;7.22;;;;;;;14.26;100.00;99559.28;5420098;32;34927;-81
2023/10/24 15:30:55;;;;;;;11.27;7.30;;;;;;;14.25;100.00;99559.50;5433684;32;34350;-81
2023/10/24 15:33:58;;;;;;;21.08;7.78;;;;;;;14.25;100.00;99560.34;5419870;32;33698;-81
2023/10/24 15:37:03;;;;;;;11.70;6.97;;;;;;;14.27;100.00;99546.56;5433504;32;34043;-82
2023/10/24 15:40:07;;;;;;;14.23;7.18;;;;;;;14.28;100.00;99532.81;5433407;32;33776;-82
2023/10/24 15:43:10;;;;;;;11.90;7.07;;;;;;;14.32;100.00;99519.66;5419933;32;33968;-81
2023/10/24 15:46:19;;;;;;;11.02;6.97;;;;;;;14.24;100.00;99514.50;5396330;32;33522;-82
2023/10/24 15:49:22;;;;;;;15.25;7.45;;;;;;;14.23;100.00;99518.28;5420237;32;33734;-82
2023/10/24 15:52:25;;;;;;;11.73;7.28;;;;;;;14.20;100.00;99514.13;5407511;32;34106;-82
2023/10/24 15:55:28;;;;;;;14.13;7.82;;;;;;;14.16;100.00;99515.66;5419829;32;33707;-81
2023/10/24 15:58:31;;;;;;;17.08;8.18;;;;;;;14.21;100.00;99515.78;5407299;32;33567;-82
2023/10/24 16:01:38;;;;;;;14.05;8.00;;;;;;;14.13;100.00;99499.00;5419949;32;34330;-83
